Luz De Mar — ECIJ — position and weather

sailwx.info

Track history (hours):
 
Tides and Currents Weather Stations Pressure Air Temp Water Temp Dewpoint Dewpoint Depression Visibility Wind Speed Wind Dir Waves Ship Positions

Luz De Mar

Last reported at 2016-Jun-29 03:27 UTC. Time now 2016-Jun-29 03:56 UTC.
Position N 36°08' W 005°26'.

Length 56 m; draft 6.7 m.

Type: SAR. MMSI: 224311000.

Date/timePositionNaut miles runAvg speedWind from/ knotsBaromVisibWave heightAir tempDewpointWater temp
2016-Jun-29 03:27N 36°08' W 005°26'0 0.0
2016-Jun-29 02:24N 36°08' W 005°26'0 0.0
2016-Jun-29 01:27N 36°08' W 005°26'0 0.0
2016-Jun-29 00:09N 36°08' W 005°26'0 0.0
2016-Jun-28 19:30N 36°08' W 005°26'0 0.0
2016-Jun-28 06:24N 36°08' W 005°26'0 0.0
2016-Jun-28 04:33N 36°08' W 005°26'0 0.0
2016-Jun-28 03:30N 36°08' W 005°26'0 0.0
2016-Jun-28 02:18N 36°08' W 005°26'0 0.0
2016-Jun-28 01:30N 36°08' W 005°26'0 0.0
2016-Jun-28 00:18N 36°08' W 005°26'0 0.0
2016-Jun-27 20:03N 36°08' W 005°26'0 0.0
2016-Jun-27 19:27N 36°08' W 005°26'0 0.0
2016-Jun-27 16:30N 36°08' W 005°26'0 0.0
2016-Jun-27 03:30N 36°08' W 005°26'0 0.0
2016-Jun-27 02:30N 36°08' W 005°26'0 0.0
2016-Jun-27 01:24N 36°08' W 005°26'0 0.0
2016-Jun-27 00:24N 36°08' W 005°26'0 0.0
2016-Jun-26 13:24N 36°08' W 005°26'0 0.0
2016-Jun-26 10:27N 36°08' W 005°26'0 0.0
2016-Jun-26 06:30N 36°08' W 005°26'0 0.0
2016-Jun-26 04:24N 36°08' W 005°26'0 0.0
2016-Jun-25 21:33N 36°08' W 005°26'0 0.0
2016-Jun-25 20:33N 36°08' W 005°26'0 0.0
2016-Jun-25 19:33N 36°08' W 005°26'0 0.0
2016-Jun-25 18:18N 36°08' W 005°26'0 0.0
2016-Jun-25 17:18N 36°08' W 005°26'0 0.0
2016-Jun-25 16:09N 36°08' W 005°26'0 0.0
2016-Jun-25 14:06N 36°08' W 005°26'0 0.0
2016-Jun-25 13:33N 36°08' W 005°26'0 0.0
2016-Jun-25 08:33N 36°08' W 005°26'0 0.0
2016-Jun-25 07:33N 36°08' W 005°26'0 0.0
2016-Jun-25 06:27N 36°08' W 005°26'0 0.0
2016-Jun-25 03:18N 36°08' W 005°26'0 0.0
2016-Jun-25 00:18N 36°08' W 005°26'0 0.0
2016-Jun-24 23:33N 36°08' W 005°26'0 0.0
2016-Jun-24 22:27N 36°08' W 005°26'0 0.0
2016-Jun-24 19:18N 36°08' W 005°26'0 0.0
2016-Jun-24 07:33N 36°08' W 005°26'0 0.0
2016-Jun-24 00:33N 36°08' W 005°26'0 0.0
2016-Jun-23 22:12N 36°08' W 005°26'0 0.0
2016-Jun-23 21:21N 36°08' W 005°26'0 0.0
2016-Jun-23 20:24N 36°08' W 005°26'0 0.0
2016-Jun-23 19:33N 36°08' W 005°26'0 0.0
2016-Jun-23 18:33N 36°08' W 005°26'0 0.0
2016-Jun-23 05:24N 36°08' W 005°26'0 0.0
2016-Jun-23 02:15N 36°08' W 005°26'0 0.0
2016-Jun-23 00:06N 36°08' W 005°26'0 0.0
2016-Jun-22 22:09N 36°08' W 005°26'0 0.0
2016-Jun-22 06:06N 36°08' W 005°26'0 0.0
2016-Jun-22 05:30N 36°08' W 005°26'0 0.0
2016-Jun-22 04:30N 36°08' W 005°26'0 0.0
2016-Jun-22 03:21N 36°08' W 005°26'0 0.0
2016-Jun-22 02:24N 36°08' W 005°26'0 0.0
2016-Jun-21 13:33N 36°08' W 005°26'3 3.2
2016-Jun-21 12:34N 36°10' W 005°23'5 5.4
2016-Jun-21 11:34N 36°04' W 005°24'5 4.7
2016-Jun-21 10:33N 36°09' W 005°26'1 0.6
2016-Jun-21 09:20N 36°08' W 005°26'0 0.0
2016-Jun-21 04:32N 36°08' W 005°26'0 0.0
2016-Jun-21 03:31N 36°08' W 005°26'0 0.0
2016-Jun-21 02:17N 36°08' W 005°26'0 0.0
2016-Jun-21 01:31N 36°08' W 005°26'0 0.0
2016-Jun-21 00:23N 36°08' W 005°26'0 0.0
2016-Jun-20 23:17N 36°08' W 005°26'0 0.0
2016-Jun-20 22:29N 36°08' W 005°26'0 0.0
2016-Jun-20 21:28N 36°08' W 005°26'0 0.0
2016-Jun-20 08:31N 36°08' W 005°26'0 0.0
2016-Jun-20 05:29N 36°08' W 005°26'0 0.0
2016-Jun-19 16:22N 36°08' W 005°26'1 0.2
2016-Jun-19 10:31N 36°09' W 005°26'2 2.5
2016-Jun-19 09:33N 36°07' W 005°25'7 6.6
2016-Jun-19 08:33N 36°00' W 005°22'7 6.7
2016-Jun-19 07:33N 35°54' W 005°19'1 0.8
2016-Jun-19 06:33N 35°54' W 005°19'0 0.0
2016-Jun-19 05:33N 35°54' W 005°19'0 0.0
2016-Jun-19 04:33N 35°54' W 005°19'0 0.0
2016-Jun-19 03:32N 35°54' W 005°19'  
Track history (hours):
 
Tides and Currents Weather Stations Pressure Air Temp Water Temp Dewpoint Dewpoint Depression Visibility Wind Speed Wind Dir Waves Ship Positions

Luz De Mar

Last reported at 2016-Jun-29 03:27 UTC. Time now 2016-Jun-29 03:56 UTC.
Position N 36°08' W 005°26'.

Length 56 m; draft 6.7 m.

Type: SAR. MMSI: 224311000.

Date/timePositionNaut miles runAvg speedWind from/ knotsBaromVisibWave heightAir tempDewpointWater temp
2016-Jun-29 03:27N 36°08' W 005°26'0 0.0
2016-Jun-29 02:24N 36°08' W 005°26'0 0.0
2016-Jun-29 01:27N 36°08' W 005°26'0 0.0
2016-Jun-29 00:09N 36°08' W 005°26'0 0.0
2016-Jun-28 19:30N 36°08' W 005°26'0 0.0
2016-Jun-28 06:24N 36°08' W 005°26'0 0.0
2016-Jun-28 04:33N 36°08' W 005°26'0 0.0
2016-Jun-28 03:30N 36°08' W 005°26'0 0.0
2016-Jun-28 02:18N 36°08' W 005°26'0 0.0
2016-Jun-28 01:30N 36°08' W 005°26'0 0.0
2016-Jun-28 00:18N 36°08' W 005°26'0 0.0
2016-Jun-27 20:03N 36°08' W 005°26'0 0.0
2016-Jun-27 19:27N 36°08' W 005°26'0 0.0
2016-Jun-27 16:30N 36°08' W 005°26'0 0.0
2016-Jun-27 03:30N 36°08' W 005°26'0 0.0
2016-Jun-27 02:30N 36°08' W 005°26'0 0.0
2016-Jun-27 01:24N 36°08' W 005°26'0 0.0
2016-Jun-27 00:24N 36°08' W 005°26'0 0.0
2016-Jun-26 13:24N 36°08' W 005°26'0 0.0
2016-Jun-26 10:27N 36°08' W 005°26'0 0.0
2016-Jun-26 06:30N 36°08' W 005°26'0 0.0
2016-Jun-26 04:24N 36°08' W 005°26'0 0.0
2016-Jun-25 21:33N 36°08' W 005°26'0 0.0
2016-Jun-25 20:33N 36°08' W 005°26'0 0.0
2016-Jun-25 19:33N 36°08' W 005°26'0 0.0
2016-Jun-25 18:18N 36°08' W 005°26'0 0.0
2016-Jun-25 17:18N 36°08' W 005°26'0 0.0
2016-Jun-25 16:09N 36°08' W 005°26'0 0.0
2016-Jun-25 14:06N 36°08' W 005°26'0 0.0
2016-Jun-25 13:33N 36°08' W 005°26'0 0.0
2016-Jun-25 08:33N 36°08' W 005°26'0 0.0
2016-Jun-25 07:33N 36°08' W 005°26'0 0.0
2016-Jun-25 06:27N 36°08' W 005°26'0 0.0
2016-Jun-25 03:18N 36°08' W 005°26'0 0.0
2016-Jun-25 00:18N 36°08' W 005°26'0 0.0
2016-Jun-24 23:33N 36°08' W 005°26'0 0.0
2016-Jun-24 22:27N 36°08' W 005°26'0 0.0
2016-Jun-24 19:18N 36°08' W 005°26'0 0.0
2016-Jun-24 07:33N 36°08' W 005°26'0 0.0
2016-Jun-24 00:33N 36°08' W 005°26'0 0.0
2016-Jun-23 22:12N 36°08' W 005°26'0 0.0
2016-Jun-23 21:21N 36°08' W 005°26'0 0.0
2016-Jun-23 20:24N 36°08' W 005°26'0 0.0
2016-Jun-23 19:33N 36°08' W 005°26'0 0.0
2016-Jun-23 18:33N 36°08' W 005°26'0 0.0
2016-Jun-23 05:24N 36°08' W 005°26'0 0.0
2016-Jun-23 02:15N 36°08' W 005°26'0 0.0
2016-Jun-23 00:06N 36°08' W 005°26'0 0.0
2016-Jun-22 22:09N 36°08' W 005°26'0 0.0
2016-Jun-22 06:06N 36°08' W 005°26'0 0.0
2016-Jun-22 05:30N 36°08' W 005°26'0 0.0
2016-Jun-22 04:30N 36°08' W 005°26'0 0.0
2016-Jun-22 03:21N 36°08' W 005°26'0 0.0
2016-Jun-22 02:24N 36°08' W 005°26'0 0.0
2016-Jun-21 13:33N 36°08' W 005°26'3 3.2
2016-Jun-21 12:34N 36°10' W 005°23'5 5.4
2016-Jun-21 11:34N 36°04' W 005°24'5 4.7
2016-Jun-21 10:33N 36°09' W 005°26'1 0.6
2016-Jun-21 09:20N 36°08' W 005°26'0 0.0
2016-Jun-21 04:32N 36°08' W 005°26'0 0.0
2016-Jun-21 03:31N 36°08' W 005°26'0 0.0
2016-Jun-21 02:17N 36°08' W 005°26'0 0.0
2016-Jun-21 01:31N 36°08' W 005°26'0 0.0
2016-Jun-21 00:23N 36°08' W 005°26'0 0.0
2016-Jun-20 23:17N 36°08' W 005°26'0 0.0
2016-Jun-20 22:29N 36°08' W 005°26'0 0.0
2016-Jun-20 21:28N 36°08' W 005°26'0 0.0
2016-Jun-20 08:31N 36°08' W 005°26'0 0.0
2016-Jun-20 05:29N 36°08' W 005°26'0 0.0
2016-Jun-19 16:22N 36°08' W 005°26'1 0.2
2016-Jun-19 10:31N 36°09' W 005°26'2 2.5
2016-Jun-19 09:33N 36°07' W 005°25'7 6.6
2016-Jun-19 08:33N 36°00' W 005°22'7 6.7
2016-Jun-19 07:33N 35°54' W 005°19'1 0.8
2016-Jun-19 06:33N 35°54' W 005°19'0 0.0
2016-Jun-19 05:33N 35°54' W 005°19'0 0.0
2016-Jun-19 04:33N 35°54' W 005°19'0 0.0
2016-Jun-19 03:32N 35°54' W 005°19'  

Dump ship's entire track history